24h
KLIENDITUGI:
Saartelennuliinid: +372 58856336 (24/7)
Estairi piletikassa lennujaamas:
+372 6058887; +372 55603687

11.02.2019 õhtune Transaviabaltika lend KTB676 Tallinn - Kärdla ja KTB677 Kärdla – Tallinn väljalend jääb ära. Lennu ära jäämise põhjustab ilmastikuolud Kärdla Lennuväljal. Reisijatele võimaldatakse tasuta lennupileti ümberbroneerimine reisija soovi kohasele mõnele teisele Tallinn-Kärdla või Kärdla-Tallinn lennule. Reisijatele kes ei soovi lennupileti ümberbroneerimist teisele lennule tagastatakse piletiraha. Oma soovist tuleb teada anda e-mailile [email protected] Lisainformatsioon telefonil 58856336.

EEKA Kärdla lennuväli FCEO32 EETN 111300 RRA

TAF EEKA 111305Z 1114/1120 34010KT 3500 RA BR BKN005 OVC010

TEMPO 1114/1117 1000 RADZ BR OVC002 TEMPO 1117/1120 34015G25KT=

METAR EEKA 111250Z 00000KT 3300 -RA BR OVC002 02/02 Q0992=
Kuupäev: 
11/02/2019